Time;durP1;ratioP1;P1;durP2;ratioP2;P2;SDS_P1;SDS_P2;PMS_P1;PMS_P2;Temp;Humidity;BMP_temperature;BMP_pressure;BME280_temperature;BME280_humidity;BME280_pressure;Samples;Min_cycle;Max_cycle;Signal;HPM_P1;HPM_P2
2023/01/26 00:00:46;;;;;;;25.33;11.60;;;1.20;99.90;;;;;;5053460;28;20409;-73
2023/01/26 00:03:12;;;;;;;24.03;12.37;;;1.20;99.90;;;;;;5073095;28;20422;-74
2023/01/26 00:05:38;;;;;;;26.13;11.40;;;1.20;99.90;;;;;;5088657;28;20185;-74
2023/01/26 00:08:03;;;;;;;30.07;11.27;;;1.20;99.90;;;;;;5073266;28;20186;-73
2023/01/26 00:10:29;;;;;;;17.80;10.30;;;1.30;99.90;;;;;;5073134;28;20819;-72
2023/01/26 00:12:54;;;;;;;26.53;13.60;;;1.30;99.90;;;;;;5086814;28;20628;-73
2023/01/26 00:15:20;;;;;;;29.60;11.33;;;1.30;99.90;;;;;;5054065;28;20637;-74
2023/01/26 00:17:45;;;;;;;21.50;10.97;;;1.30;99.90;;;;;;5061160;28;20597;-74
2023/01/26 00:20:11;;;;;;;26.80;10.03;;;1.30;99.90;;;;;;5072844;28;20574;-74
2023/01/26 00:22:37;;;;;;;24.23;10.27;;;1.30;99.90;;;;;;5072714;28;20647;-74
2023/01/26 00:25:02;;;;;;;21.13;10.17;;;1.30;99.90;;;;;;5071144;28;20182;-74
2023/01/26 00:27:28;;;;;;;31.67;11.60;;;1.20;99.90;;;;;;5071525;28;20177;-73
2023/01/26 00:29:53;;;;;;;36.10;12.50;;;1.20;99.90;;;;;;5088291;28;20248;-73
2023/01/26 00:32:19;;;;;;;31.47;11.73;;;1.20;99.90;;;;;;5072155;28;20647;-74
2023/01/26 00:34:44;;;;;;;29.60;12.03;;;1.20;99.90;;;;;;5054950;28;20174;-73
2023/01/26 00:37:10;;;;;;;38.37;11.23;;;1.10;99.90;;;;;;5052593;28;20166;-73
2023/01/26 00:39:36;;;;;;;25.07;10.13;;;1.20;99.90;;;;;;5052538;28;20195;-74
2023/01/26 00:42:10;;;;;;;36.30;12.70;;;1.20;99.90;;;;;;5076952;28;20238;-74
2023/01/26 00:44:40;;;;;;;34.30;12.40;;;1.20;99.90;;;;;;5063664;28;20257;-74
2023/01/26 00:47:07;;;;;;;32.97;11.57;;;1.20;99.90;;;;;;5072378;28;20403;-74
2023/01/26 00:49:33;;;;;;;34.10;12.60;;;1.30;99.90;;;;;;5072359;28;20420;-74
2023/01/26 00:51:59;;;;;;;28.07;12.27;;;1.30;99.90;;;;;;5071737;28;20932;-73
2023/01/26 00:54:25;;;;;;;29.07;13.23;;;1.30;99.90;;;;;;5087702;28;20423;-74
2023/01/26 00:56:51;;;;;;;30.20;12.27;;;1.30;99.90;;;;;;5054270;28;20804;-74
2023/01/26 00:59:16;;;;;;;33.97;12.90;;;1.40;99.90;;;;;;5052390;28;20201;-74
2023/01/26 01:01:42;;;;;;;25.47;10.17;;;1.40;99.90;;;;;;5052253;28;20774;-74
2023/01/26 01:04:07;;;;;;;39.57;12.10;;;1.40;99.90;;;;;;5063527;28;20169;-74
2023/01/26 01:06:33;;;;;;;32.50;11.50;;;1.40;99.90;;;;;;5071952;28;20243;-74
2023/01/26 01:08:59;;;;;;;38.60;14.13;;;1.30;99.90;;;;;;5072113;28;20188;-72
2023/01/26 01:11:24;;;;;;;41.63;16.20;;;1.40;99.90;;;;;;5072125;28;20169;-74
2023/01/26 01:13:49;;;;;;;35.97;11.67;;;1.40;99.90;;;;;;5071949;28;20198;-74
2023/01/26 01:16:15;;;;;;;31.80;14.70;;;1.40;99.90;;;;;;5071481;28;20534;-72
2023/01/26 01:18:42;;;;;;;35.07;13.47;;;1.40;99.90;;;;;;5071908;28;20253;-72
2023/01/26 01:21:13;;;;;;;50.00;14.80;;;1.40;99.90;;;;;;5071576;28;20518;-73
2023/01/26 01:23:40;;;;;;;37.23;14.97;;;1.40;99.90;;;;;;5063649;28;20417;-72
2023/01/26 01:26:06;;;;;;;33.43;13.43;;;1.40;99.90;;;;;;5071779;28;20409;-72
2023/01/26 01:28:32;;;;;;;28.50;11.73;;;1.40;99.90;;;;;;5071863;28;20432;-72
2023/01/26 01:30:58;;;;;;;30.63;11.70;;;1.40;99.90;;;;;;5072032;28;20408;-72
2023/01/26 01:33:23;;;;;;;31.10;13.80;;;1.40;99.90;;;;;;5066750;28;20464;-72
2023/01/26 01:36:04;;;;;;;27.80;11.83;;;1.40;99.90;;;;;;5051509;28;20201;-72
2023/01/26 01:38:29;;;;;;;37.60;15.17;;;1.40;99.90;;;;;;5064483;28;20201;-73
2023/01/26 01:40:56;;;;;;;30.73;10.53;;;1.50;99.90;;;;;;5071806;28;20492;-72
2023/01/26 01:43:23;;;;;;;30.57;11.90;;;1.50;99.90;;;;;;5063540;28;20186;-73
2023/01/26 01:45:50;;;;;;;27.87;11.70;;;1.50;99.90;;;;;;5051835;28;20433;-73
2023/01/26 01:48:49;;;;;;;32.50;15.00;;;1.50;99.90;;;;;;5051668;28;21128;-73
2023/01/26 01:51:20;;;;;;;38.13;12.97;;;1.50;99.90;;;;;;5052061;28;20405;-72
2023/01/26 01:53:49;;;;;;;26.53;11.10;;;1.50;99.90;;;;;;5051712;28;20460;-72
2023/01/26 01:56:20;;;;;;;36.60;13.70;;;1.50;99.90;;;;;;5051379;28;20456;-72
2023/01/26 01:58:49;;;;;;;28.17;12.53;;;1.50;99.90;;;;;;5085078;28;20941;-72
2023/01/26 02:01:14;;;;;;;28.10;11.43;;;1.30;99.90;;;;;;5071745;28;20404;-72
2023/01/26 02:03:41;;;;;;;31.53;12.27;;;1.20;99.90;;;;;;5075041;28;20408;-74
2023/01/26 02:06:16;;;;;;;28.60;11.60;;;1.10;99.90;;;;;;5075443;28;20162;-73
2023/01/26 02:08:49;;;;;;;22.03;10.93;;;1.00;99.90;;;;;;5075587;28;20447;-73
2023/01/26 02:11:26;;;;;;;34.43;13.33;;;1.00;99.90;;;;;;5088093;28;20513;-72
2023/01/26 02:13:53;;;;;;;25.33;12.47;;;1.00;99.90;;;;;;5057192;28;20464;-73
2023/01/26 02:16:18;;;;;;;33.50;12.50;;;0.90;99.90;;;;;;5074965;28;21071;-74
2023/01/26 02:18:45;;;;;;;26.03;9.90;;;0.70;99.90;;;;;;5075474;28;20420;-71
2023/01/26 02:21:15;;;;;;;27.13;12.80;;;0.70;99.90;;;;;;5074946;28;20177;-73
2023/01/26 02:24:05;;;;;;;28.00;11.70;;;0.70;99.90;;;;;;5075403;28;20439;-72
2023/01/26 02:26:33;;;;;;;27.67;11.97;;;0.70;99.90;;;;;;5065984;28;20551;-72
2023/01/26 02:28:59;;;;;;;27.43;11.77;;;0.50;99.90;;;;;;5055225;28;20429;-73
2023/01/26 02:31:26;;;;;;;40.60;12.60;;;0.50;99.90;;;;;;5055134;28;20422;-73
2023/01/26 02:33:52;;;;;;;24.67;11.70;;;0.20;99.90;;;;;;5064431;28;20788;-72
2023/01/26 02:36:25;;;;;;;27.30;11.27;;;0.10;99.90;;;;;;5074856;28;20450;-72
2023/01/26 02:39:32;;;;;;;33.00;12.70;;;0.10;99.90;;;;;;5074957;28;20566;-72
2023/01/26 02:42:58;;;;;;;35.77;13.00;;;0.00;99.90;;;;;;5064526;28;20814;-72
2023/01/26 02:44:53;;;;;;;27.77;11.63;;;0.00;99.90;;;;;;5053159;28;20480;-71
2023/01/26 02:47:19;;;;;;;30.07;11.60;;;-0.20;99.90;;;;;;5074990;28;20412;-71
2023/01/26 02:49:49;;;;;;;32.77;11.33;;;-0.10;99.90;;;;;;5075976;28;20194;-71
2023/01/26 02:52:17;;;;;;;23.43;10.40;;;-0.10;99.90;;;;;;5084083;28;20536;-73
2023/01/26 02:57:26;;;;;;;27.03;11.57;;;-0.10;99.90;;;;;;5074430;28;20448;-72
2023/01/26 02:59:52;;;;;;;35.13;12.00;;;0.00;99.90;;;;;;5074560;28;20853;-73
2023/01/26 03:02:18;;;;;;;35.87;13.10;;;0.00;99.90;;;;;;5074665;28;20169;-73
2023/01/26 03:04:44;;;;;;;23.90;11.07;;;0.10;99.90;;;;;;5074419;28;20199;-72
2023/01/26 03:07:09;;;;;;;22.20;10.00;;;0.20;99.90;;;;;;5060345;28;20473;-72
2023/01/26 03:09:35;;;;;;;21.30;9.97;;;0.20;99.90;;;;;;5058402;28;20194;-72
2023/01/26 03:12:02;;;;;;;35.20;12.93;;;0.20;99.90;;;;;;5074321;28;20181;-71
2023/01/26 03:14:27;;;;;;;21.83;10.00;;;0.30;99.90;;;;;;5072922;28;20405;-71
2023/01/26 03:16:54;;;;;;;37.47;12.20;;;0.20;99.90;;;;;;5074380;28;20750;-72
2023/01/26 03:27:42;;;;;;;27.70;10.90;;;0.20;99.90;;;;;;5074274;28;20414;-74
2023/01/26 03:30:09;;;;;;;37.17;12.70;;;0.20;99.90;;;;;;5071315;28;20819;-74
2023/01/26 03:32:34;;;;;;;30.07;11.77;;;0.30;99.90;;;;;;5053851;28;20441;-73
2023/01/26 03:35:00;;;;;;;25.53;11.43;;;0.30;99.90;;;;;;5053694;28;20743;-73
2023/01/26 03:37:25;;;;;;;20.83;11.30;;;0.40;99.90;;;;;;5053956;28;20197;-72
2023/01/26 03:56:23;;;;;;;28.03;10.87;;;0.10;99.90;;;;;;5061719;28;20986;-72
2023/01/26 03:58:56;;;;;;;26.53;11.50;;;0.20;99.90;;;;;;5073434;28;20456;-72
2023/01/26 04:01:27;;;;;;;29.60;11.77;;;0.30;99.90;;;;;;5074877;28;20930;-73
2023/01/26 04:09:26;;;;;;;29.43;10.03;;;0.00;99.90;;;;;;5054840;28;20486;-73
2023/01/26 04:11:52;;;;;;;28.13;10.30;;;0.00;99.90;;;;;;5053407;28;20429;-71
2023/01/26 04:22:39;;;;;;;20.60;10.73;;;-0.10;99.90;;;;;;5066973;28;20423;-71
2023/01/26 04:25:06;;;;;;;21.23;9.33;;;-0.10;99.90;;;;;;5072417;28;20395;-73
2023/01/26 04:27:35;;;;;;;19.83;9.07;;;-0.10;99.90;;;;;;5072340;28;20451;-71
2023/01/26 04:30:02;;;;;;;20.07;9.27;;;0.10;99.90;;;;;;5073025;28;20438;-73
2023/01/26 04:32:29;;;;;;;22.97;9.67;;;0.20;99.90;;;;;;5071545;28;20853;-71
2023/01/26 04:34:54;;;;;;;28.27;10.80;;;0.20;99.90;;;;;;5072477;28;20431;-73
2023/01/26 04:37:20;;;;;;;28.63;11.10;;;0.30;99.90;;;;;;5068525;28;20810;-73
2023/01/26 04:39:45;;;;;;;29.87;12.80;;;0.20;99.90;;;;;;5053117;28;20633;-71
2023/01/26 04:42:11;;;;;;;19.80;10.17;;;0.20;99.90;;;;;;5052908;28;20488;-72
2023/01/26 04:44:37;;;;;;;25.20;9.50;;;0.20;99.90;;;;;;5051708;28;20185;-74
2023/01/26 04:47:02;;;;;;;18.57;9.63;;;0.20;99.90;;;;;;5071321;28;20443;-71
2023/01/26 04:49:28;;;;;;;25.73;11.30;;;0.40;99.90;;;;;;5052451;28;20631;-71
2023/01/26 04:51:53;;;;;;;24.90;11.03;;;0.40;99.90;;;;;;5065783;28;21338;-74
2023/01/26 04:54:19;;;;;;;17.50;9.30;;;0.50;99.90;;;;;;5056316;28;20206;-74
2023/01/26 04:56:44;;;;;;;24.83;10.40;;;0.60;99.90;;;;;;5052368;28;20196;-74
2023/01/26 04:59:10;;;;;;;22.20;9.60;;;0.70;99.90;;;;;;5052394;28;20186;-73
2023/01/26 05:01:36;;;;;;;22.90;12.20;;;0.80;99.90;;;;;;5052481;28;20535;-73
2023/01/26 05:04:03;;;;;;;21.77;10.00;;;0.90;99.90;;;;;;5065378;28;20411;-73
2023/01/26 05:06:29;;;;;;;16.10;11.67;;;1.00;99.90;;;;;;5061669;28;20194;-74
2023/01/26 05:08:55;;;;;;;22.33;11.10;;;1.00;99.90;;;;;;5052265;28;20992;-71
2023/01/26 05:11:21;;;;;;;31.43;10.50;;;1.10;99.90;;;;;;5051986;28;20163;-71
2023/01/26 05:13:47;;;;;;;18.80;9.20;;;1.10;99.90;;;;;;5081595;28;20442;-72
2023/01/26 05:16:13;;;;;;;23.63;11.20;;;1.20;99.90;;;;;;5072722;28;20223;-72
2023/01/26 05:18:39;;;;;;;20.47;10.70;;;1.20;99.90;;;;;;5071876;28;20416;-72
2023/01/26 05:21:05;;;;;;;29.00;11.17;;;1.20;99.90;;;;;;5068525;28;20524;-74
2023/01/26 05:23:31;;;;;;;45.40;13.27;;;1.30;99.90;;;;;;5051837;28;20958;-73
2023/01/26 05:25:56;;;;;;;25.17;10.27;;;1.40;99.90;;;;;;5051799;28;20517;-72
2023/01/26 05:28:22;;;;;;;27.50;11.70;;;1.40;99.90;;;;;;5068077;28;20224;-73
2023/01/26 05:30:47;;;;;;;33.17;12.33;;;1.40;99.90;;;;;;5072117;28;20219;-73
2023/01/26 05:33:13;;;;;;;27.93;10.87;;;1.50;99.90;;;;;;5070635;28;20250;-73
2023/01/26 05:35:39;;;;;;;25.40;11.10;;;1.50;99.90;;;;;;5061833;28;20654;-73
2023/01/26 05:38:04;;;;;;;28.13;11.63;;;1.60;99.90;;;;;;5050990;28;20436;-73
2023/01/26 05:40:30;;;;;;;21.33;11.07;;;1.60;99.90;;;;;;5066661;28;20180;-71
2023/01/26 05:42:57;;;;;;;29.53;10.67;;;1.60;99.90;;;;;;5071983;28;20194;-73
2023/01/26 05:45:22;;;;;;;19.03;10.50;;;1.30;99.90;;;;;;5071630;28;20486;-73
2023/01/26 05:47:48;;;;;;;28.47;11.67;;;1.30;99.90;;;;;;5087197;28;20176;-73
2023/01/26 05:50:15;;;;;;;17.77;10.17;;;1.10;99.90;;;;;;5071813;28;20173;-74
2023/01/26 05:52:48;;;;;;;26.53;12.00;;;1.10;99.90;;;;;;5069376;28;20201;-72
2023/01/26 05:55:14;;;;;;;35.33;10.87;;;1.10;99.90;;;;;;5071628;28;20420;-73
2023/01/26 05:57:40;;;;;;;27.50;10.70;;;1.20;99.90;;;;;;5062248;28;20425;-73
2023/01/26 06:00:07;;;;;;;23.20;10.17;;;1.20;99.90;;;;;;5051879;28;20470;-73
2023/01/26 06:02:33;;;;;;;26.73;10.97;;;1.30;99.90;;;;;;5071682;28;21009;-73
2023/01/26 06:04:58;;;;;;;26.50;9.63;;;1.30;99.90;;;;;;5071323;28;20427;-74
2023/01/26 06:07:25;;;;;;;19.60;9.20;;;1.30;99.90;;;;;;5071633;28;20173;-72
2023/01/26 06:09:51;;;;;;;19.57;8.83;;;1.30;99.90;;;;;;5070183;28;20276;-72
2023/01/26 06:12:18;;;;;;;24.27;9.50;;;1.30;99.90;;;;;;5051715;28;20512;-74
2023/01/26 06:14:44;;;;;;;21.97;11.20;;;1.40;99.90;;;;;;5051316;28;20408;-72
2023/01/26 06:17:10;;;;;;;21.50;9.73;;;1.50;99.90;;;;;;5054105;28;20458;-73
2023/01/26 06:19:36;;;;;;;16.70;7.13;;;1.50;99.90;;;;;;5072834;28;20197;-73
2023/01/26 06:22:03;;;;;;;29.20;11.37;;;1.50;99.90;;;;;;5072939;28;20476;-73
2023/01/26 06:24:29;;;;;;;33.80;11.20;;;1.50;99.90;;;;;;5071276;28;20174;-71
2023/01/26 06:26:54;;;;;;;25.60;10.97;;;1.50;99.90;;;;;;5071432;28;20408;-72
2023/01/26 06:29:20;;;;;;;15.63;7.13;;;1.60;99.90;;;;;;5071432;28;20435;-73
2023/01/26 06:31:45;;;;;;;19.27;8.37;;;1.60;99.90;;;;;;5068363;28;20620;-73
2023/01/26 06:34:11;;;;;;;29.57;10.20;;;1.60;99.90;;;;;;5051335;28;20209;-73
2023/01/26 06:36:36;;;;;;;27.87;9.40;;;1.60;99.90;;;;;;5051081;28;20175;-73
2023/01/26 06:39:02;;;;;;;19.70;9.57;;;1.60;99.90;;;;;;5051164;28;20218;-73
2023/01/26 06:41:28;;;;;;;24.93;11.77;;;1.60;99.90;;;;;;5051328;28;20197;-73
2023/01/26 06:43:53;;;;;;;24.80;11.83;;;1.60;99.90;;;;;;5055459;28;20425;-73
2023/01/26 06:46:19;;;;;;;23.30;10.70;;;1.70;99.90;;;;;;5071004;28;20216;-73
2023/01/26 06:48:45;;;;;;;24.43;9.23;;;1.70;99.90;;;;;;5071194;28;20212;-73
2023/01/26 06:51:18;;;;;;;32.33;10.67;;;1.70;99.90;;;;;;5074370;28;20203;-73
2023/01/26 06:53:50;;;;;;;24.30;9.50;;;1.70;99.90;;;;;;5074880;28;20990;-72
2023/01/26 06:56:15;;;;;;;16.23;8.53;;;1.70;99.90;;;;;;5067361;28;20413;-73
2023/01/26 06:58:41;;;;;;;24.17;10.00;;;1.70;99.90;;;;;;5054603;28;20478;-72
2023/01/26 07:01:28;;;;;;;30.07;12.70;;;1.80;99.90;;;;;;5054589;28;20163;-72
2023/01/26 07:03:54;;;;;;;27.23;9.57;;;1.80;99.90;;;;;;5052802;28;20185;-72
2023/01/26 07:06:20;;;;;;;23.67;9.10;;;1.80;99.90;;;;;;5054185;28;20471;-72
2023/01/26 07:08:46;;;;;;;20.37;10.73;;;1.80;99.90;;;;;;5061597;28;20198;-72
2023/01/26 07:11:12;;;;;;;24.13;9.03;;;1.80;99.90;;;;;;5074699;28;20965;-73
2023/01/26 07:13:38;;;;;;;17.43;9.13;;;1.80;99.90;;;;;;5074151;28;20221;-73
2023/01/26 07:16:06;;;;;;;30.97;10.30;;;1.80;99.90;;;;;;5074180;28;20411;-73
2023/01/26 07:18:32;;;;;;;26.43;8.50;;;1.90;99.90;;;;;;5058044;28;20969;-73
2023/01/26 07:21:02;;;;;;;15.03;8.20;;;1.90;99.90;;;;;;5057205;28;20425;-73
2023/01/26 07:23:28;;;;;;;18.73;7.73;;;1.90;99.90;;;;;;5074212;28;20182;-72
2023/01/26 07:25:54;;;;;;;18.50;8.30;;;2.00;99.90;;;;;;5073914;28;20435;-74
2023/01/26 07:28:20;;;;;;;20.63;11.60;;;1.90;99.90;;;;;;5074165;28;20424;-72
2023/01/26 07:30:45;;;;;;;31.57;14.10;;;1.80;99.90;;;;;;5075192;28;20182;-73
2023/01/26 07:33:11;;;;;;;28.13;13.30;;;1.70;99.90;;;;;;5082782;28;20209;-74
2023/01/26 07:35:36;;;;;;;11.30;6.80;;;1.80;99.90;;;;;;5073742;28;20194;-73
2023/01/26 07:38:05;;;;;;;17.03;8.17;;;1.70;99.90;;;;;;5074132;28;20209;-74
2023/01/26 07:40:31;;;;;;;17.20;8.13;;;1.80;99.90;;;;;;5073878;28;20526;-74
2023/01/26 07:42:58;;;;;;;20.17;8.30;;;1.80;99.90;;;;;;5061472;28;20504;-74
2023/01/26 07:45:24;;;;;;;14.53;7.60;;;1.90;99.90;;;;;;5054054;28;20425;-74
2023/01/26 07:47:49;;;;;;;15.43;8.87;;;1.90;99.90;;;;;;5053613;28;20488;-73
2023/01/26 07:50:15;;;;;;;17.77;7.07;;;1.90;99.90;;;;;;5053790;28;20212;-74
2023/01/26 07:52:42;;;;;;;18.00;8.43;;;2.00;99.90;;;;;;5063721;28;20541;-72
2023/01/26 07:55:08;;;;;;;19.53;7.90;;;2.00;99.90;;;;;;5073541;28;20157;-73
2023/01/26 07:57:33;;;;;;;18.30;8.37;;;2.10;99.90;;;;;;5079634;28;20420;-74
2023/01/26 07:59:59;;;;;;;13.47;8.13;;;2.10;99.90;;;;;;5052800;28;20201;-73
2023/01/26 08:02:24;;;;;;;19.10;9.87;;;2.10;99.90;;;;;;5052341;28;20167;-74
2023/01/26 08:04:50;;;;;;;22.77;8.63;;;2.10;99.90;;;;;;5053044;28;20171;-74
2023/01/26 08:07:15;;;;;;;20.50;9.27;;;2.20;99.90;;;;;;5052916;28;20515;-73
2023/01/26 08:09:41;;;;;;;14.53;7.40;;;2.00;99.90;;;;;;5061057;28;20569;-73
2023/01/26 08:12:07;;;;;;;18.27;7.90;;;2.10;99.90;;;;;;5072767;28;20186;-73
2023/01/26 08:14:32;;;;;;;13.17;8.63;;;2.20;99.90;;;;;;5071687;28;20174;-74
2023/01/26 08:16:58;;;;;;;20.87;8.00;;;2.20;99.90;;;;;;5071896;28;20201;-74
2023/01/26 08:19:23;;;;;;;20.03;8.63;;;2.30;99.90;;;;;;5073136;28;20525;-73
2023/01/26 08:21:49;;;;;;;16.27;8.20;;;2.40;99.90;;;;;;5062985;28;20178;-74
2023/01/26 08:24:14;;;;;;;23.87;10.20;;;2.40;99.90;;;;;;5052854;28;20513;-73
2023/01/26 08:26:40;;;;;;;21.23;9.50;;;2.40;99.90;;;;;;5068375;28;20198;-74
2023/01/26 08:29:06;;;;;;;17.00;8.73;;;2.40;99.90;;;;;;5051766;28;20655;-73
2023/01/26 08:31:32;;;;;;;24.30;9.00;;;2.50;99.90;;;;;;5051708;28;20170;-74
2023/01/26 08:33:58;;;;;;;18.27;8.23;;;2.60;99.90;;;;;;5063948;28;20592;-74
2023/01/26 08:36:24;;;;;;;19.53;8.70;;;2.60;99.90;;;;;;5072656;28;20964;-72
2023/01/26 08:38:50;;;;;;;23.27;10.70;;;2.70;99.90;;;;;;5088199;28;20452;-74
2023/01/26 08:41:17;;;;;;;25.00;10.63;;;2.80;99.90;;;;;;5072604;28;20909;-74
2023/01/26 08:43:42;;;;;;;24.30;8.20;;;2.90;99.90;;;;;;5083399;28;20423;-73
2023/01/26 08:46:08;;;;;;;19.20;10.00;;;2.90;99.90;;;;;;5073687;28;20416;-72
2023/01/26 08:48:34;;;;;;;21.73;9.73;;;3.00;99.90;;;;;;5072534;28;20185;-73
2023/01/26 08:51:03;;;;;;;27.77;8.70;;;3.00;99.90;;;;;;5071601;28;20408;-74
2023/01/26 08:53:34;;;;;;;18.40;7.97;;;3.10;99.90;;;;;;5052449;28;20846;-72
2023/01/26 08:56:01;;;;;;;26.10;11.73;;;3.20;99.90;;;;;;5052079;28;20420;-74
2023/01/26 08:58:27;;;;;;;33.83;11.03;;;3.20;99.90;;;;;;5069088;28;20526;-72
2023/01/26 09:00:53;;;;;;;26.73;10.80;;;3.30;99.90;;;;;;5072285;28;20449;-73
2023/01/26 09:03:18;;;;;;;24.00;10.90;;;3.30;99.90;;;;;;5072348;28;20409;-73
2023/01/26 09:05:44;;;;;;;26.50;11.00;;;3.40;99.90;;;;;;5071998;28;20173;-74
2023/01/26 09:08:09;;;;;;;27.57;12.40;;;3.50;99.90;;;;;;5071961;28;20186;-74
2023/01/26 09:10:38;;;;;;;23.03;9.90;;;3.50;99.90;;;;;;5057597;28;20669;-74
2023/01/26 09:13:04;;;;;;;29.07;10.73;;;3.60;99.90;;;;;;5072110;28;20275;-74
2023/01/26 09:15:30;;;;;;;22.00;10.63;;;3.70;99.90;;;;;;5068611;28;20430;-74
2023/01/26 09:17:56;;;;;;;30.13;10.80;;;3.70;99.90;;;;;;5060959;28;20515;-74
2023/01/26 09:20:21;;;;;;;21.97;10.30;;;3.80;99.90;;;;;;5062305;28;20628;-73
2023/01/26 09:22:47;;;;;;;20.07;8.67;;;3.90;99.90;;;;;;5061053;28;20163;-73
2023/01/26 09:25:13;;;;;;;19.13;8.27;;;3.90;99.90;;;;;;5061645;28;20675;-74
2023/01/26 09:27:38;;;;;;;28.00;10.70;;;3.90;99.90;;;;;;5062595;28;20637;-74
2023/01/26 09:30:06;;;;;;;29.13;11.93;;;3.90;99.90;;;;;;5060517;28;20604;-74
2023/01/26 09:32:32;;;;;;;18.43;8.87;;;3.90;99.90;;;;;;5061134;28;20272;-74
2023/01/26 09:34:57;;;;;;;23.43;9.10;;;3.90;99.90;;;;;;5062029;28;20470;-74
2023/01/26 09:37:23;;;;;;;15.43;9.60;;;3.90;99.90;;;;;;5060317;28;20405;-73
2023/01/26 09:39:48;;;;;;;23.73;11.20;;;3.90;99.90;;;;;;5061677;28;20667;-73
2023/01/26 09:42:42;;;;;;;26.10;11.93;;;4.00;99.90;;;;;;5059709;28;20215;-74
2023/01/26 09:45:17;;;;;;;21.57;10.10;;;4.00;99.90;;;;;;5060687;28;20727;-74
2023/01/26 09:48:08;;;;;;;24.37;11.73;;;4.00;99.90;;;;;;5060304;28;20490;-73
2023/01/26 09:50:42;;;;;;;21.50;9.07;;;4.00;99.90;;;;;;5065823;28;20431;-74
2023/01/26 09:53:13;;;;;;;23.00;9.60;;;4.00;99.90;;;;;;5061686;28;20525;-73
2023/01/26 09:55:40;;;;;;;28.00;12.80;;;4.00;99.90;;;;;;5062091;28;20402;-73
2023/01/26 09:58:13;;;;;;;22.73;11.20;;;3.90;99.90;;;;;;5061828;28;20530;-74
2023/01/26 10:00:51;;;;;;;23.63;10.10;;;3.90;99.90;;;;;;5061808;28;20418;-73
2023/01/26 10:03:34;;;;;;;36.83;11.90;;;3.90;99.90;;;;;;5062092;28;20883;-73
2023/01/26 10:06:25;;;;;;;30.80;13.23;;;3.90;99.90;;;;;;5059757;28;20417;-73
2023/01/26 10:08:53;;;;;;;35.07;14.67;;;3.90;99.90;;;;;;5084255;28;20433;-74
2023/01/26 10:11:42;;;;;;;23.27;10.83;;;3.90;99.90;;;;;;5059614;28;20447;-73
2023/01/26 10:14:20;;;;;;;39.67;13.97;;;3.90;99.90;;;;;;5059349;28;20480;-71
2023/01/26 10:16:49;;;;;;;38.57;15.03;;;3.90;99.90;;;;;;5062286;28;20400;-72
2023/01/26 10:19:41;;;;;;;37.00;15.30;;;3.90;99.90;;;;;;5060872;28;20425;-72
2023/01/26 10:22:16;;;;;;;37.10;11.83;;;4.00;99.90;;;;;;5063096;28;20917;-73
2023/01/26 10:24:47;;;;;;;46.43;14.33;;;4.00;99.90;;;;;;5068634;28;20413;-72
2023/01/26 10:27:15;;;;;;;28.67;12.03;;;4.00;99.90;;;;;;5062671;28;20488;-72
2023/01/26 10:29:41;;;;;;;28.90;13.10;;;4.00;99.90;;;;;;5065319;28;20438;-72
2023/01/26 10:32:13;;;;;;;31.00;13.10;;;4.00;99.90;;;;;;5058043;28;20921;-72
2023/01/26 10:34:40;;;;;;;27.87;11.03;;;4.10;99.90;;;;;;5055007;28;20167;-72
2023/01/26 10:37:28;;;;;;;29.97;13.30;;;4.10;99.90;;;;;;5054021;28;20492;-72
2023/01/26 10:40:03;;;;;;;23.67;11.40;;;4.10;99.90;;;;;;5055340;28;20532;-71
2023/01/26 10:42:32;;;;;;;28.50;11.63;;;4.10;99.90;;;;;;5054909;28;20412;-72
2023/01/26 10:45:00;;;;;;;23.90;11.40;;;4.10;99.90;;;;;;5053745;28;20405;-72
2023/01/26 10:47:27;;;;;;;27.03;13.03;;;4.20;99.90;;;;;;5053648;28;20850;-72
2023/01/26 10:50:24;;;;;;;30.23;11.50;;;4.20;99.90;;;;;;5054776;28;20413;-72
2023/01/26 10:53:02;;;;;;;24.80;11.00;;;4.30;99.90;;;;;;5069983;28;20476;-71
2023/01/26 10:55:29;;;;;;;34.90;12.00;;;4.30;99.90;;;;;;5074576;28;20419;-72
2023/01/26 10:57:55;;;;;;;28.77;10.90;;;4.30;99.90;;;;;;5090204;28;20443;-72
2023/01/26 11:00:20;;;;;;;23.97;11.53;;;4.30;99.90;;;;;;5074741;28;20818;-72
2023/01/26 11:02:52;;;;;;;29.10;11.00;;;4.40;99.90;;;;;;5077532;28;20502;-71
2023/01/26 11:05:19;;;;;;;32.30;13.37;;;4.40;99.90;;;;;;5071045;28;20651;-73
2023/01/26 11:07:48;;;;;;;25.77;12.53;;;4.40;99.90;;;;;;5073159;28;20500;-72
2023/01/26 11:10:16;;;;;;;27.13;12.40;;;4.50;99.90;;;;;;5073342;28;20432;-72
2023/01/26 11:12:42;;;;;;;27.77;11.70;;;4.50;99.90;;;;;;5066744;28;20810;-72
2023/01/26 11:15:18;;;;;;;23.90;12.27;;;4.60;99.90;;;;;;5082665;28;20415;-72
2023/01/26 11:17:58;;;;;;;29.53;12.23;;;4.70;99.90;;;;;;5068382;28;20170;-72
2023/01/26 11:20:41;;;;;;;21.10;11.00;;;4.70;99.90;;;;;;5064983;28;20767;-73
2023/01/26 11:23:15;;;;;;;27.70;11.63;;;4.70;99.90;;;;;;5071102;28;20504;-72
2023/01/26 11:26:00;;;;;;;29.70;11.77;;;4.70;99.90;;;;;;5064280;28;20413;-72
2023/01/26 11:28:50;;;;;;;28.33;11.43;;;4.60;99.90;;;;;;5064168;28;20515;-72
2023/01/26 11:31:22;;;;;;;22.63;11.37;;;4.60;99.90;;;;;;5064915;28;20865;-73
2023/01/26 11:34:01;;;;;;;37.67;13.60;;;4.60;99.90;;;;;;5061781;28;20858;-73
2023/01/26 11:37:03;;;;;;;22.07;12.17;;;4.60;99.90;;;;;;5063746;28;20404;-73
2023/01/26 11:40:00;;;;;;;26.67;12.83;;;4.60;99.90;;;;;;5063967;28;20456;-73
2023/01/26 11:42:36;;;;;;;29.87;14.17;;;4.50;99.90;;;;;;5063630;28;20408;-73
2023/01/26 11:45:16;;;;;;;31.30;13.90;;;4.50;99.90;;;;;;5064003;28;20919;-72
2023/01/26 11:47:57;;;;;;;32.50;11.37;;;4.40;99.90;;;;;;5064166;28;21057;-73
2023/01/26 11:50:39;;;;;;;31.27;13.30;;;4.40;99.90;;;;;;5062025;28;20409;-73
2023/01/26 11:53:24;;;;;;;23.40;11.03;;;4.40;99.90;;;;;;5062703;28;20449;-73
2023/01/26 11:56:06;;;;;;;27.43;13.07;;;4.40;99.90;;;;;;5064033;28;20411;-73
2023/01/26 11:58:48;;;;;;;29.73;11.60;;;4.30;99.90;;;;;;5062557;28;20429;-72
2023/01/26 12:01:21;;;;;;;20.10;11.70;;;4.30;99.90;;;;;;5063978;28;20439;-73
2023/01/26 12:03:48;;;;;;;26.87;9.90;;;4.30;99.90;;;;;;5064183;28;20396;-72
2023/01/26 12:06:35;;;;;;;30.80;10.97;;;4.30;99.90;;;;;;5061314;28;20433;-72
2023/01/26 12:09:31;;;;;;;23.67;11.50;;;4.30;99.90;;;;;;5072381;28;20432;-73
2023/01/26 12:12:11;;;;;;;28.67;11.47;;;4.30;99.90;;;;;;5062018;28;20432;-73
2023/01/26 12:14:45;;;;;;;26.87;11.87;;;4.30;99.90;;;;;;5062879;28;20468;-73
2023/01/26 12:17:31;;;;;;;35.73;11.80;;;4.20;99.90;;;;;;5063864;28;20408;-73
2023/01/26 12:20:21;;;;;;;25.73;10.70;;;4.20;99.90;;;;;;5063003;28;20501;-73
2023/01/26 12:23:18;;;;;;;20.50;11.30;;;4.30;99.90;;;;;;5062425;28;20416;-71
2023/01/26 12:25:55;;;;;;;22.80;9.50;;;4.20;99.90;;;;;;5058530;28;20890;-73
2023/01/26 12:28:34;;;;;;;23.90;11.17;;;4.20;99.90;;;;;;5060754;28;20760;-72
2023/01/26 12:31:32;;;;;;;20.13;8.70;;;4.30;99.90;;;;;;5063492;28;20405;-71
2023/01/26 12:33:58;;;;;;;21.70;10.73;;;4.30;99.90;;;;;;5062405;28;20446;-71
2023/01/26 12:36:27;;;;;;;22.83;11.20;;;4.30;99.90;;;;;;5060146;28;20771;-71
2023/01/26 12:39:27;;;;;;;18.57;9.40;;;4.40;99.90;;;;;;5062495;28;20451;-71
2023/01/26 12:42:23;;;;;;;17.70;9.13;;;4.50;99.90;;;;;;5062999;28;20404;-71
2023/01/26 12:45:00;;;;;;;24.57;11.00;;;4.50;99.90;;;;;;5067506;28;20408;-71
2023/01/26 12:47:47;;;;;;;16.37;8.67;;;4.60;99.90;;;;;;5070520;28;20415;-71
2023/01/26 12:50:13;;;;;;;19.10;8.47;;;4.60;99.90;;;;;;5072455;28;20400;-71
2023/01/26 12:53:00;;;;;;;18.60;10.27;;;4.60;99.90;;;;;;5059141;28;20453;-71
2023/01/26 12:55:52;;;;;;;19.07;9.60;;;4.70;99.90;;;;;;5052279;28;20198;-71
2023/01/26 12:58:39;;;;;;;20.27;7.83;;;4.70;99.90;;;;;;5049928;28;20429;-71
2023/01/26 13:01:13;;;;;;;14.00;7.63;;;4.70;99.90;;;;;;5056039;28;20463;-71
2023/01/26 13:03:43;;;;;;;17.77;9.27;;;4.70;99.90;;;;;;5052389;28;20451;-71
2023/01/26 13:06:08;;;;;;;17.07;7.90;;;4.70;99.90;;;;;;5052039;28;20517;-71
2023/01/26 13:08:34;;;;;;;15.03;7.40;;;4.70;99.90;;;;;;5065436;28;20471;-71
2023/01/26 13:11:08;;;;;;;12.30;7.37;;;4.80;99.90;;;;;;5070962;28;20185;-71
2023/01/26 13:13:50;;;;;;;21.43;8.07;;;4.80;99.90;;;;;;5068731;28;20194;-71
2023/01/26 13:16:16;;;;;;;13.77;7.00;;;4.80;99.90;;;;;;5071315;28;20982;-71
2023/01/26 13:18:53;;;;;;;12.83;7.20;;;4.70;99.90;;;;;;5071811;28;20486;-71
2023/01/26 13:21:40;;;;;;;12.97;6.07;;;4.70;99.90;;;;;;5079582;28;20215;-71
2023/01/26 13:24:29;;;;;;;21.00;6.67;;;4.60;99.90;;;;;;5071520;28;20404;-72
2023/01/26 13:26:57;;;;;;;15.20;6.70;;;4.60;99.90;;;;;;5071612;28;20479;-72
2023/01/26 13:29:28;;;;;;;10.43;6.20;;;4.50;99.90;;;;;;5071755;28;20937;-70
2023/01/26 13:32:20;;;;;;;10.90;6.97;;;4.50;99.90;;;;;;5061837;28;20417;-71
2023/01/26 13:34:58;;;;;;;11.17;6.50;;;4.40;99.90;;;;;;5051364;28;20417;-70
2023/01/26 13:37:32;;;;;;;10.53;6.20;;;4.30;99.90;;;;;;5050166;28;20448;-71